createdAt,value
2019-04-29T00:02:07.100Z,14.97
2019-04-29T00:04:35.887Z,16.57
2019-04-29T00:07:04.777Z,15.87
2019-04-29T00:09:33.775Z,13.40
2019-04-29T00:12:02.623Z,17.40
2019-04-29T00:14:32.095Z,13.73
2019-04-29T00:17:12.316Z,17.23
2019-04-29T00:20:00.175Z,14.90
2019-04-29T00:22:29.065Z,21.57
2019-04-29T00:24:57.845Z,14.83
2019-04-29T00:27:26.824Z,15.43
2019-04-29T00:29:55.717Z,15.00
2019-04-29T00:32:24.663Z,16.70
2019-04-29T00:34:55.771Z,20.20
2019-04-29T00:37:43.748Z,15.17
2019-04-29T00:40:31.630Z,18.27
2019-04-29T00:43:19.535Z,14.63
2019-04-29T00:45:48.347Z,16.57
2019-04-29T00:48:17.132Z,13.77
2019-04-29T00:50:46.082Z,15.80
2019-04-29T00:53:14.811Z,13.17
2019-04-29T00:55:43.575Z,15.27
2019-04-29T00:58:12.393Z,14.80
2019-04-29T01:00:41.922Z,14.43
2019-04-29T01:03:10.827Z,15.60
2019-04-29T01:05:39.922Z,16.10
2019-04-29T01:08:08.946Z,15.33
2019-04-29T01:10:37.855Z,12.90
2019-04-29T01:13:06.753Z,13.50
2019-04-29T01:15:35.634Z,12.80
2019-04-29T01:18:04.521Z,13.43
2019-04-29T01:20:35.712Z,12.00
2019-04-29T01:23:04.907Z,13.30
2019-04-29T01:25:34.790Z,14.43
2019-04-29T01:28:22.773Z,12.97
2019-04-29T01:30:55.556Z,11.53
2019-04-29T01:33:24.430Z,15.63
2019-04-29T01:36:04.643Z,17.67
2019-04-29T01:38:33.573Z,12.83
2019-04-29T01:41:08.722Z,12.03
2019-04-29T01:43:56.644Z,13.23
2019-04-29T01:46:25.391Z,14.83
2019-04-29T01:48:54.199Z,16.47
2019-04-29T01:51:23.015Z,17.30
2019-04-29T01:53:52.073Z,11.73
2019-04-29T01:56:20.946Z,16.70
2019-04-29T01:58:49.860Z,16.27
2019-04-29T02:01:18.791Z,12.27
2019-04-29T02:03:47.722Z,16.40
2019-04-29T02:06:16.513Z,18.97
2019-04-29T02:08:45.408Z,23.50
2019-04-29T02:11:14.322Z,13.07
2019-04-29T02:13:43.150Z,17.80
2019-04-29T02:16:12.150Z,23.03
2019-04-29T02:18:41.007Z,17.17
2019-04-29T02:21:13.808Z,12.73
2019-04-29T03:09:19.741Z,17.93
2019-04-29T03:11:48.840Z,11.33
2019-04-29T03:14:20.778Z,19.03
2019-04-29T03:16:49.593Z,10.30
2019-04-29T03:19:27.104Z,9.43
2019-04-29T03:21:57.841Z,9.93
2019-04-29T03:24:26.827Z,8.77
2019-04-29T03:26:55.804Z,8.63
2019-04-29T03:29:24.955Z,9.33
2019-04-29T03:31:54.771Z,8.93
2019-04-29T03:34:23.611Z,8.70
2019-04-29T03:36:52.899Z,10.27
2019-04-29T03:39:23.230Z,8.20
2019-04-29T03:41:52.620Z,6.73
2019-04-29T03:44:21.509Z,7.27
2019-04-29T03:46:50.497Z,8.03
2019-04-29T03:49:19.416Z,7.23
2019-04-29T03:51:48.453Z,7.23
2019-04-29T03:54:17.394Z,8.20
2019-04-29T03:56:46.361Z,11.67
2019-04-29T03:59:17.869Z,9.80
2019-04-29T04:02:05.899Z,11.53
2019-04-29T04:04:53.908Z,7.00
2019-04-29T04:07:41.911Z,9.77
2019-04-29T04:10:11.182Z,8.37
2019-04-29T04:12:42.560Z,12.07
2019-04-29T04:15:11.985Z,8.07
2019-04-29T04:17:48.060Z,8.83
2019-04-29T04:20:21.885Z,12.43
2019-04-29T04:22:52.040Z,7.73
2019-04-29T04:25:20.843Z,6.63
2019-04-29T04:27:49.729Z,6.47
2019-04-29T04:30:20.103Z,7.40
2019-04-29T04:32:49.101Z,7.47
2019-04-29T04:35:22.498Z,6.03
2019-04-29T04:37:54.052Z,6.30
2019-04-29T04:40:29.203Z,8.43
2019-04-29T04:42:58.249Z,6.80
2019-04-29T04:45:27.006Z,6.17
2019-04-29T04:47:55.954Z,7.80
2019-04-29T04:50:30.784Z,6.83
2019-04-29T04:52:55.619Z,6.33
2019-04-29T04:55:27.149Z,5.80
2019-04-29T04:57:55.934Z,12.40
2019-04-29T05:00:26.138Z,12.43
2019-04-29T05:02:55.235Z,21.87
2019-04-29T05:05:52.148Z,20.97
2019-04-29T05:08:21.708Z,7.90
2019-04-29T05:11:04.651Z,9.37
2019-04-29T05:13:33.736Z,14.00
2019-04-29T05:16:02.799Z,7.37
2019-04-29T05:18:31.750Z,11.27
2019-04-29T05:21:00.682Z,12.97
2019-04-29T05:23:29.581Z,10.67
2019-04-29T05:25:58.630Z,6.63
2019-04-29T05:28:28.885Z,6.93
2019-04-29T05:31:00.923Z,7.90
2019-04-29T05:33:29.778Z,7.63
2019-04-29T05:36:10.923Z,10.63
2019-04-29T05:38:51.363Z,6.87
2019-04-29T05:41:21.564Z,7.87
2019-04-29T05:44:09.371Z,5.73
2019-04-29T05:46:43.390Z,15.73
2019-04-29T05:49:14.176Z,6.37
2019-04-29T05:51:50.164Z,6.40
2019-04-29T05:54:19.088Z,8.37
2019-04-29T05:56:48.005Z,6.03
2019-04-29T05:59:16.814Z,10.17
2019-04-29T06:01:47.123Z,10.77
2019-04-29T06:04:18.095Z,6.70
2019-04-29T06:06:46.548Z,5.53
2019-04-29T06:09:16.664Z,5.90
2019-04-29T06:11:45.868Z,5.87
2019-04-29T06:14:14.561Z,8.17
2019-04-29T06:16:43.352Z,8.00
2019-04-29T06:19:12.122Z,7.07
2019-04-29T06:21:40.922Z,6.90
2019-04-29T06:24:09.637Z,10.43
2019-04-29T06:26:38.519Z,9.80
2019-04-29T06:29:07.223Z,9.40
2019-04-29T06:31:35.947Z,6.53
2019-04-29T06:34:05.102Z,10.03
2019-04-29T06:36:35.240Z,5.13
2019-04-29T06:39:06.003Z,8.67
2019-04-29T06:41:34.834Z,5.53
2019-04-29T06:44:06.276Z,5.60
2019-04-29T06:46:34.142Z,6.10
2019-04-29T06:49:10.035Z,5.07
2019-04-29T06:51:33.347Z,5.23
2019-04-29T06:54:03.240Z,6.90
2019-04-29T06:56:32.065Z,15.57
2019-04-29T06:59:00.843Z,7.40
2019-04-29T07:01:33.074Z,11.97
2019-04-29T07:04:01.406Z,8.87
2019-04-29T07:06:30.243Z,9.30
2019-04-29T07:08:59.115Z,8.47
2019-04-29T07:11:31.731Z,17.23
2019-04-29T07:13:59.817Z,10.40
2019-04-29T07:16:31.969Z,10.93
2019-04-29T07:18:59.423Z,11.70
2019-04-29T07:21:28.404Z,12.20
2019-04-29T07:23:59.073Z,10.53
2019-04-29T07:26:28.050Z,11.90
2019-04-29T07:28:57.017Z,11.93
2019-04-29T07:31:28.133Z,11.37
2019-04-29T07:33:59.091Z,14.50
2019-04-29T07:36:34.313Z,11.97
2019-04-29T07:39:04.145Z,14.70
2019-04-29T07:41:33.059Z,16.77
2019-04-29T07:44:07.303Z,23.57
2019-04-29T07:47:02.075Z,16.70
2019-04-29T07:49:35.605Z,17.60
2019-04-29T07:52:14.596Z,16.00
2019-04-29T07:54:48.308Z,17.33
2019-04-29T07:57:16.545Z,15.17
2019-04-29T07:59:46.445Z,14.97
2019-04-29T08:02:15.116Z,18.73
2019-04-29T08:04:43.797Z,13.30
2019-04-29T08:07:12.487Z,24.37
2019-04-29T08:09:44.213Z,22.43
2019-04-29T08:12:12.820Z,20.67
2019-04-29T08:14:41.756Z,22.73
2019-04-29T08:17:10.436Z,24.13
2019-04-29T08:19:39.128Z,29.33
2019-04-29T08:22:07.855Z,33.13
2019-04-29T08:24:37.486Z,36.83
2019-04-29T08:27:06.305Z,22.40
2019-04-29T08:29:35.723Z,22.20
2019-04-29T08:32:05.502Z,36.17
2019-04-29T08:34:34.338Z,33.00
2019-04-29T08:37:03.154Z,25.53
2019-04-29T08:39:33.048Z,22.47
2019-04-29T08:42:08.717Z,24.73
2019-04-29T08:44:54.772Z,24.43
2019-04-29T08:47:31.431Z,32.37
2019-04-29T08:49:56.527Z,27.03
2019-04-29T08:52:25.234Z,30.97
2019-04-29T08:54:55.696Z,39.63
2019-04-29T08:57:24.491Z,37.97
2019-04-29T08:59:53.335Z,31.13
2019-04-29T09:02:34.487Z,35.67
2019-04-29T09:04:53.973Z,33.87
2019-04-29T09:07:23.257Z,33.60
2019-04-29T09:09:56.269Z,29.70
2019-04-29T09:12:24.215Z,38.63
2019-04-29T09:14:53.379Z,30.50
2019-04-29T09:17:22.136Z,33.67
2019-04-29T09:19:50.852Z,30.03
2019-04-29T09:22:21.949Z,37.57
2019-04-29T09:25:09.730Z,37.33
2019-04-29T09:27:40.714Z,42.80
2019-04-29T09:30:10.980Z,52.20
2019-04-29T09:32:39.920Z,38.07
2019-04-29T09:35:08.750Z,48.37
2019-04-29T09:37:39.811Z,38.13
2019-04-29T09:40:11.530Z,38.10
2019-04-29T09:42:59.357Z,55.27
2019-04-29T09:45:39.980Z,34.33
2019-04-29T09:48:08.779Z,44.73
2019-04-29T09:50:39.255Z,39.83
2019-04-29T09:53:08.070Z,35.77
2019-04-29T09:55:40.154Z,36.83
2019-04-29T09:58:07.331Z,32.80
2019-04-29T10:00:46.173Z,38.13
2019-04-29T10:03:29.909Z,38.23
2019-04-29T10:06:06.617Z,44.90
2019-04-29T10:08:35.422Z,43.93
2019-04-29T10:11:05.365Z,43.33
2019-04-29T10:13:34.101Z,43.73
2019-04-29T10:16:16.248Z,43.93
2019-04-29T10:18:51.136Z,38.77
2019-04-29T10:21:21.263Z,48.03
2019-04-29T10:23:50.571Z,41.07
2019-04-29T10:26:19.367Z,58.37
2019-04-29T10:29:07.102Z,41.57
2019-04-29T10:31:36.215Z,33.13
2019-04-29T10:34:06.443Z,39.27
2019-04-29T10:36:35.332Z,42.70
2019-04-29T10:39:25.695Z,33.07
2019-04-29T10:41:54.828Z,53.47
2019-04-29T10:44:37.400Z,37.43
2019-04-29T10:47:25.996Z,32.70
2019-04-29T10:49:57.615Z,35.27
2019-04-29T10:52:27.662Z,39.87
2019-04-29T10:54:56.726Z,39.07
2019-04-29T10:57:25.550Z,39.67
2019-04-29T11:00:03.275Z,51.53
2019-04-29T11:02:37.364Z,38.23
2019-04-29T11:05:25.211Z,37.07
2019-04-29T11:08:02.508Z,54.17
2019-04-29T11:10:31.336Z,43.40
2019-04-29T11:13:00.189Z,50.87
2019-04-29T11:15:32.757Z,64.17
2019-04-29T11:18:03.689Z,52.83
2019-04-29T11:20:32.754Z,35.50
2019-04-29T11:23:20.592Z,44.30
2019-04-29T11:26:11.953Z,60.90
2019-04-29T11:28:40.703Z,46.80
2019-04-29T11:31:13.722Z,62.23
2019-04-29T11:33:59.050Z,38.97
2019-04-29T11:36:27.916Z,49.53
2019-04-29T11:38:56.785Z,66.83
2019-04-29T11:41:27.443Z,43.53
2019-04-29T11:43:56.186Z,44.27
2019-04-29T11:46:25.396Z,42.30
2019-04-29T11:48:55.733Z,61.57
2019-04-29T11:52:05.364Z,48.37
2019-04-29T11:54:17.452Z,42.07
2019-04-29T11:56:42.675Z,59.13
2019-04-29T11:59:30.961Z,74.63
2019-04-29T12:02:12.007Z,60.47
2019-04-29T12:04:47.944Z,45.50
2019-04-29T12:07:16.816Z,65.37
2019-04-29T12:09:45.764Z,50.37
2019-04-29T12:12:16.189Z,43.23
2019-04-29T12:14:54.308Z,49.67
2019-04-29T12:17:30.119Z,68.73
2019-04-29T12:20:08.920Z,68.50
2019-04-29T12:22:48.109Z,74.07
2019-04-29T12:25:08.300Z,55.53
2019-04-29T12:27:40.629Z,55.77
2019-04-29T12:30:11.004Z,78.87
2019-04-29T12:32:49.663Z,83.50
2019-04-29T12:35:30.108Z,58.20
2019-04-29T12:38:20.383Z,57.70
2019-04-29T12:41:20.466Z,102.57
2019-04-29T12:43:59.199Z,57.77
2019-04-29T12:46:34.190Z,81.87
2019-04-29T12:49:03.490Z,70.80
2019-04-29T12:51:33.581Z,52.27
2019-04-29T12:54:02.306Z,104.80
2019-04-29T12:56:36.523Z,64.57
2019-04-29T12:59:05.728Z,63.47
2019-04-29T13:01:58.344Z,73.17
2019-04-29T13:04:45.094Z,120.27
2019-04-29T13:11:04.840Z,67.47
2019-04-29T13:13:33.216Z,130.47
2019-04-29T13:16:20.030Z,84.80
2019-04-29T13:19:10.887Z,69.67
2019-04-29T13:21:29.863Z,77.13
2019-04-29T13:24:13.479Z,95.10
2019-04-29T13:26:33.229Z,85.00
2019-04-29T13:29:03.398Z,114.70
2019-04-29T13:31:39.487Z,109.80
2019-04-29T13:34:22.727Z,86.93
2019-04-29T13:36:42.960Z,111.00
2019-04-29T13:39:11.993Z,107.97
2019-04-29T13:41:56.291Z,103.93
2019-04-29T13:44:19.570Z,75.30
2019-04-29T13:46:56.996Z,118.83
2019-04-29T13:49:31.494Z,82.10
2019-04-29T13:52:00.780Z,87.10
2019-04-29T13:54:37.186Z,85.03
2019-04-29T13:57:15.432Z,74.43
2019-04-29T13:59:50.913Z,80.83
2019-04-29T14:02:33.403Z,71.10
2019-04-29T14:05:05.656Z,99.50
2019-04-29T14:07:34.334Z,75.27
2019-04-29T14:10:05.247Z,79.47
2019-04-29T14:13:00.688Z,76.10
2019-04-29T14:15:04.888Z,68.63
2019-04-29T14:17:35.667Z,75.50
2019-04-29T14:20:05.290Z,80.93
2019-04-29T14:22:34.199Z,84.87
2019-04-29T14:25:03.168Z,72.10
2019-04-29T14:27:32.490Z,77.20
2019-04-29T14:30:07.430Z,74.50
2019-04-29T14:32:42.372Z,71.37
2019-04-29T14:35:22.608Z,78.00
2019-04-29T15:09:47.164Z,73.43
2019-04-29T15:15:34.203Z,102.10
2019-04-29T15:18:38.891Z,66.37
2019-04-29T15:21:10.851Z,78.90
2019-04-29T15:23:39.740Z,77.90
2019-04-29T15:26:08.576Z,78.93
2019-04-29T15:28:50.898Z,91.83
2019-04-29T15:31:20.872Z,78.83
2019-04-29T15:33:49.698Z,73.30
2019-04-29T15:36:18.628Z,70.80
2019-04-29T15:39:07.668Z,76.30
2019-04-29T15:41:18.371Z,76.40
2019-04-29T15:43:48.343Z,74.20
2019-04-29T15:46:20.121Z,69.33
2019-04-29T15:48:49.053Z,66.77
2019-04-29T15:51:17.980Z,72.87
2019-04-29T15:53:46.943Z,76.87
2019-04-29T15:56:28.406Z,74.23
2019-04-29T15:58:49.392Z,72.83
2019-04-29T16:01:27.017Z,70.90
2019-04-29T16:06:39.977Z,78.10
2019-04-29T16:09:41.986Z,80.27
2019-04-29T16:12:18.167Z,67.37
2019-04-29T16:14:49.148Z,74.37
2019-04-29T16:17:20.522Z,75.23
2019-04-29T16:19:52.207Z,77.43
2019-04-29T16:22:24.373Z,70.37
2019-04-29T16:24:59.385Z,96.83
2019-04-29T16:27:31.374Z,76.47
2019-04-29T16:30:00.264Z,90.60
2019-04-29T16:32:37.293Z,86.00
2019-04-29T16:35:06.248Z,101.43
2019-04-29T16:37:38.250Z,77.37
2019-04-29T16:40:07.698Z,77.13
2019-04-29T16:42:55.603Z,73.90
2019-04-29T16:45:32.969Z,74.60
2019-04-29T16:48:01.925Z,65.80
2019-04-29T16:50:41.683Z,81.13
2019-04-29T16:53:10.653Z,78.23
2019-04-29T16:55:43.214Z,128.47
2019-04-29T16:58:17.676Z,80.77
2019-04-29T17:00:46.836Z,130.23
2019-04-29T17:03:11.545Z,76.60
2019-04-29T17:05:44.108Z,78.43
2019-04-29T17:08:15.347Z,80.97
2019-04-29T17:10:55.136Z,77.83
2019-04-29T17:13:24.155Z,78.00
2019-04-29T17:15:53.902Z,89.80
2019-04-29T17:18:22.983Z,84.93
2019-04-29T17:20:52.067Z,90.87
2019-04-29T17:23:24.464Z,83.73
2019-04-29T17:25:51.547Z,121.20
2019-04-29T17:28:29.199Z,82.33
2019-04-29T17:31:17.335Z,78.87
2019-04-29T17:33:50.817Z,67.40
2019-04-29T17:35:17.400Z,79.37
2019-04-29T17:36:23.796Z,65.93
2019-04-29T17:38:52.135Z,60.37
2019-04-29T17:41:21.208Z,63.93
2019-04-29T17:44:08.353Z,67.77
2019-04-29T17:46:49.658Z,70.67
2019-04-29T17:49:30.431Z,71.50
2019-04-29T17:52:02.886Z,88.23
2019-04-29T17:54:34.836Z,106.47
2019-04-29T17:57:28.615Z,69.27
2019-04-29T18:00:10.211Z,82.10
2019-04-29T18:03:08.775Z,75.77
2019-04-29T18:06:05.420Z,54.73
2019-04-29T18:08:56.428Z,62.37
2019-04-29T18:11:28.695Z,57.20
2019-04-29T18:14:01.292Z,58.53
2019-04-29T18:16:52.060Z,75.80
2019-04-29T18:19:47.183Z,86.27
2019-04-29T19:07:52.339Z,54.90
2019-04-29T19:10:18.376Z,66.90
2019-04-29T19:29:18.916Z,41.43
2019-04-29T19:32:01.573Z,49.37
2019-04-29T19:34:50.026Z,48.20
2019-04-29T19:37:32.228Z,67.10
2019-04-29T19:40:08.407Z,35.97
2019-04-29T19:42:46.882Z,38.80
2019-04-29T19:45:29.581Z,36.00
2019-04-29T19:47:59.550Z,32.67
2019-04-29T19:51:14.025Z,55.47
2019-04-29T19:53:31.496Z,39.67
2019-04-29T19:56:06.882Z,118.10
2019-04-29T19:58:39.394Z,41.90
2019-04-29T20:01:23.318Z,47.70
2019-04-29T20:04:22.192Z,35.80
2019-04-29T20:07:11.449Z,40.10
2019-04-29T20:10:03.946Z,48.33
2019-04-29T20:12:31.284Z,85.23
2019-04-29T20:15:11.133Z,52.07
2019-04-29T20:18:10.711Z,40.63
2019-04-29T20:21:08.906Z,43.27
2019-04-29T20:24:09.337Z,56.17
2019-04-29T20:30:15.977Z,44.20
2019-04-29T20:32:36.454Z,48.00
2019-04-29T20:35:12.313Z,53.30
2019-04-29T20:37:43.163Z,45.27
2019-04-29T20:40:16.990Z,50.20
2019-04-29T20:42:49.522Z,40.43
2019-04-29T20:45:27.332Z,58.30
2019-04-29T20:47:57.195Z,40.87
2019-04-29T20:50:26.611Z,70.33
2019-04-29T20:53:05.806Z,70.50
2019-04-29T20:55:39.697Z,32.80
2019-04-29T20:58:08.879Z,74.87
2019-04-29T21:00:39.106Z,40.07
2019-04-29T21:03:11.295Z,50.77
2019-04-29T21:05:48.292Z,42.80
2019-04-29T21:08:16.484Z,46.70
2019-04-29T21:10:44.402Z,44.33
2019-04-29T21:13:36.037Z,73.27
2019-04-29T21:16:15.557Z,55.17
2019-04-29T21:18:56.582Z,63.60
2019-04-29T21:21:25.599Z,54.03
2019-04-29T21:24:06.463Z,45.83
2019-04-29T21:26:44.504Z,57.03
2019-04-29T21:29:15.821Z,32.73
2019-04-29T21:31:42.159Z,32.30
2019-04-29T21:34:11.747Z,32.27
2019-04-29T21:37:01.625Z,28.23
2019-04-29T21:39:49.207Z,37.30
2019-04-29T21:42:37.127Z,28.77
2019-04-29T21:45:08.860Z,44.23
2019-04-29T21:47:44.141Z,29.67
2019-04-29T21:50:08.239Z,27.43
2019-04-29T21:52:37.430Z,26.73
2019-04-29T21:55:10.588Z,26.93
2019-04-29T21:57:40.758Z,30.67
2019-04-29T22:00:10.847Z,39.00
2019-04-29T22:02:41.498Z,49.87
2019-04-29T22:05:14.895Z,37.03
2019-04-29T22:07:46.503Z,52.40
2019-04-29T22:10:12.878Z,32.53
2019-04-29T22:12:41.826Z,58.40
2019-04-29T22:15:10.839Z,43.73
2019-04-29T22:17:39.727Z,40.00
2019-04-29T22:20:10.642Z,37.70
2019-04-29T22:22:48.776Z,42.73
2019-04-29T22:25:17.887Z,44.93
2019-04-29T22:27:55.371Z,34.33
2019-04-29T22:30:26.461Z,37.63
2019-04-29T22:32:58.792Z,40.17
2019-04-29T22:35:27.760Z,27.43
2019-04-29T22:37:56.764Z,31.47
2019-04-29T22:40:25.578Z,41.93
2019-04-29T22:43:16.243Z,40.43
2019-04-29T22:45:47.152Z,39.13
2019-04-29T22:48:19.560Z,26.77
2019-04-29T22:50:47.417Z,33.07
2019-04-29T22:53:17.650Z,30.03
2019-04-29T22:55:48.769Z,28.07
2019-04-29T22:58:17.591Z,38.57
2019-04-29T23:00:46.545Z,43.03
2019-04-29T23:03:15.403Z,34.43
2019-04-29T23:05:46.166Z,52.40
2019-04-29T23:08:15.268Z,45.73
2019-04-29T23:10:45.601Z,44.33
2019-04-29T23:13:14.475Z,30.93
2019-04-29T23:15:43.251Z,31.13
2019-04-29T23:18:23.877Z,40.43
2019-04-29T23:21:03.926Z,45.67
2019-04-29T23:23:38.194Z,57.97
2019-04-29T23:26:07.352Z,33.97
2019-04-29T23:28:36.282Z,37.90
2019-04-29T23:31:05.254Z,35.97
2019-04-29T23:33:36.000Z,48.97
2019-04-29T23:36:04.994Z,50.43
2019-04-29T23:38:33.943Z,28.97
2019-04-29T23:41:02.808Z,28.00
2019-04-29T23:43:31.700Z,43.10
2019-04-29T23:46:00.844Z,29.90
2019-04-29T23:48:38.771Z,39.63
2019-04-29T23:51:00.265Z,28.53
2019-04-29T23:53:29.014Z,37.13
2019-04-29T23:56:00.222Z,30.90
2019-04-29T23:58:37.216Z,27.63
